Time;durP1;ratioP1;P1;durP2;ratioP2;P2;SDS_P1;SDS_P2;PMS_P1;PMS_P2;Temp;Humidity;BMP_temperature;BMP_pressure;BME280_temperature;BME280_humidity;BME280_pressure;Samples;Min_cycle;Max_cycle;Signal;HPM_P1;HPM_P2
2021/09/03 00:58:14;;;;;;;21.98;7.53;;;14.80;99.90;;;;;;4995860;28;20060;-86
2021/09/03 01:00:41;;;;;;;26.52;8.73;;;15.80;99.90;;;;;;5029039;28;20488;-85
2021/09/03 01:03:09;;;;;;;25.05;7.43;;;15.80;99.90;;;;;;5013200;28;20043;-85
2021/09/03 01:05:37;;;;;;;20.35;8.73;;;15.70;99.90;;;;;;5033124;28;20425;-85
2021/09/03 01:08:06;;;;;;;22.67;7.47;;;15.70;99.90;;;;;;5018328;28;20050;-85
2021/09/03 01:10:35;;;;;;;30.55;9.00;;;15.60;99.90;;;;;;5021199;28;20053;-85
2021/09/03 01:13:06;;;;;;;24.25;7.80;;;15.60;99.90;;;;;;5017827;28;20155;-85
2021/09/03 01:15:38;;;;;;;20.02;6.03;;;15.50;99.90;;;;;;5010577;28;20050;-87
2021/09/03 01:18:06;;;;;;;20.40;8.23;;;15.40;99.90;;;;;;5013892;28;20058;-86
2021/09/03 01:20:34;;;;;;;24.92;8.23;;;15.30;99.90;;;;;;5014873;28;20030;-85
2021/09/03 01:23:03;;;;;;;26.52;8.18;;;15.30;99.90;;;;;;5016071;28;20417;-86
2021/09/03 01:25:31;;;;;;;19.38;6.40;;;15.30;99.90;;;;;;5017829;28;20045;-85
2021/09/03 01:28:01;;;;;;;26.27;9.15;;;15.20;99.90;;;;;;5023956;28;20045;-86
2021/09/03 01:30:29;;;;;;;17.70;7.28;;;15.20;99.90;;;;;;5016561;28;20049;-87
2021/09/03 01:32:57;;;;;;;22.48;7.53;;;15.10;99.90;;;;;;5024264;28;20049;-86
2021/09/03 01:35:26;;;;;;;20.23;7.38;;;15.10;99.90;;;;;;5012801;28;20054;-86
2021/09/03 01:37:53;;;;;;;15.27;7.07;;;15.00;99.90;;;;;;5013203;28;20049;-85
2021/09/03 01:40:22;;;;;;;18.80;8.25;;;15.00;99.90;;;;;;5012863;28;20038;-85
2021/09/03 01:42:50;;;;;;;18.08;7.80;;;15.00;99.90;;;;;;5012981;28;20053;-86
2021/09/03 01:45:17;;;;;;;22.52;7.28;;;14.90;99.90;;;;;;5013833;28;20054;-87
2021/09/03 01:47:45;;;;;;;20.23;6.85;;;14.90;99.90;;;;;;5014962;28;20057;-86
2021/09/03 01:50:14;;;;;;;24.55;7.55;;;14.80;99.90;;;;;;5030332;28;20050;-86
2021/09/03 01:52:43;;;;;;;19.52;7.43;;;14.80;99.90;;;;;;5015844;28;20061;-86
2021/09/03 01:55:11;;;;;;;19.27;8.38;;;14.70;99.90;;;;;;5014712;28;20045;-85
2021/09/03 01:57:39;;;;;;;25.73;8.43;;;14.70;99.90;;;;;;5011675;28;20064;-86
2021/09/03 02:00:26;;;;;;;30.08;8.10;;;14.70;99.90;;;;;;5029721;28;20497;-85
2021/09/03 02:02:54;;;;;;;26.17;8.65;;;14.60;99.90;;;;;;5014361;28;20057;-86
2021/09/03 02:05:23;;;;;;;20.30;8.05;;;14.60;99.90;;;;;;4998652;28;20050;-87
2021/09/03 02:07:51;;;;;;;21.33;7.32;;;14.60;99.90;;;;;;5025637;28;20049;-86
2021/09/03 02:10:19;;;;;;;21.50;8.40;;;14.50;99.90;;;;;;5012475;28;20069;-88
2021/09/03 02:12:47;;;;;;;21.58;7.78;;;14.50;99.90;;;;;;4996329;28;20050;-87
2021/09/03 02:15:16;;;;;;;37.92;9.77;;;14.50;99.90;;;;;;5013905;28;20053;-84
2021/09/03 02:17:44;;;;;;;17.50;6.93;;;14.50;99.90;;;;;;5020125;28;20425;-85
2021/09/03 02:20:12;;;;;;;24.15;6.57;;;14.40;99.90;;;;;;5012726;28;20085;-86
2021/09/03 02:22:40;;;;;;;18.55;8.20;;;14.40;99.90;;;;;;5033415;28;20054;-88
2021/09/03 02:25:09;;;;;;;22.05;7.32;;;14.40;99.90;;;;;;5015088;28;20057;-87
2021/09/03 02:27:37;;;;;;;14.50;5.95;;;14.40;99.90;;;;;;5018939;28;20517;-86
2021/09/03 02:30:07;;;;;;;17.90;7.55;;;14.40;99.90;;;;;;5033158;28;20038;-86
2021/09/03 02:32:35;;;;;;;28.02;8.00;;;14.50;99.90;;;;;;5017891;28;20054;-85
2021/09/03 02:35:03;;;;;;;18.23;6.78;;;14.50;99.90;;;;;;5020882;28;20050;-89
2021/09/03 02:37:34;;;;;;;30.55;9.25;;;14.50;99.90;;;;;;5018218;28;20527;-85
2021/09/03 02:40:06;;;;;;;25.13;8.20;;;14.60;99.90;;;;;;5016721;28;20054;-86
2021/09/03 02:42:34;;;;;;;18.67;8.32;;;14.70;99.90;;;;;;5012490;28;20061;-85
2021/09/03 02:45:03;;;;;;;21.75;10.57;;;14.70;99.90;;;;;;5007727;28;20053;-85
2021/09/03 02:47:33;;;;;;;22.75;8.85;;;14.80;99.90;;;;;;5018169;28;20049;-86
2021/09/03 02:50:02;;;;;;;19.80;8.52;;;14.80;99.90;;;;;;5028778;28;20042;-87
2021/09/03 02:52:30;;;;;;;21.92;7.07;;;14.90;99.90;;;;;;5030059;28;20057;-85
2021/09/03 02:54:58;;;;;;;19.13;8.27;;;15.00;99.90;;;;;;5033160;28;20046;-86
2021/09/03 02:57:26;;;;;;;22.23;8.20;;;15.00;99.90;;;;;;5032607;28;20054;-86
2021/09/03 02:59:54;;;;;;;19.63;7.18;;;15.10;99.90;;;;;;5015835;28;20049;-87
2021/09/03 03:02:22;;;;;;;19.55;7.50;;;15.10;99.90;;;;;;5016310;28;20049;-87
2021/09/03 03:04:50;;;;;;;21.95;8.18;;;15.20;99.90;;;;;;5017527;28;20057;-86
2021/09/03 03:07:17;;;;;;;23.17;8.30;;;15.20;99.90;;;;;;5032362;28;20053;-89
2021/09/03 03:09:45;;;;;;;26.05;8.50;;;15.30;99.90;;;;;;5034333;28;20046;-87
2021/09/03 03:12:14;;;;;;;21.77;8.63;;;15.30;99.90;;;;;;5017821;28;20045;-88
2021/09/03 03:14:42;;;;;;;23.55;9.18;;;15.40;99.90;;;;;;5018795;28;20050;-89
2021/09/03 03:17:10;;;;;;;29.55;10.32;;;15.40;99.90;;;;;;5018301;28;20057;-88
2021/09/03 03:19:38;;;;;;;23.92;8.93;;;15.40;99.90;;;;;;5016868;28;20054;-87
2021/09/03 03:22:07;;;;;;;26.38;7.88;;;15.00;99.90;;;;;;5034833;28;20045;-85
2021/09/03 03:24:35;;;;;;;25.73;9.48;;;15.50;99.90;;;;;;5017904;28;20065;-87
2021/09/03 03:27:03;;;;;;;19.50;8.77;;;15.50;99.90;;;;;;5033250;28;20042;-86
2021/09/03 03:29:32;;;;;;;21.55;8.60;;;15.60;99.90;;;;;;5028032;28;20073;-91
2021/09/03 03:32:00;;;;;;;28.88;8.40;;;15.60;99.90;;;;;;5018304;28;20050;-88
2021/09/03 03:34:27;;;;;;;29.50;8.88;;;15.60;99.90;;;;;;5036450;28;20053;-88
2021/09/03 03:36:55;;;;;;;24.10;8.02;;;15.60;99.90;;;;;;5021102;28;20034;-88
2021/09/03 03:39:23;;;;;;;29.52;10.98;;;15.60;99.90;;;;;;5017599;28;20098;-85
2021/09/03 03:41:52;;;;;;;25.77;9.95;;;15.60;99.90;;;;;;5035290;28;20425;-88
2021/09/03 03:44:20;;;;;;;27.80;8.77;;;15.60;99.90;;;;;;4985450;28;20084;-90
2021/09/03 03:46:48;;;;;;;24.73;8.18;;;15.60;99.90;;;;;;5002601;28;20052;-89
2021/09/03 03:49:16;;;;;;;22.55;7.53;;;15.60;99.90;;;;;;5036675;28;20046;-90
2021/09/03 03:51:48;;;;;;;;;;;15.60;99.90;;;;;;5003206;28;20061;-90
2021/09/03 03:54:18;;;;;;;21.65;7.10;;;15.60;99.90;;;;;;5020681;28;19929;-86
2021/09/03 03:56:46;;;;;;;25.05;8.20;;;15.60;99.90;;;;;;5035848;28;20057;-90
2021/09/03 03:59:14;;;;;;;20.98;7.88;;;15.60;99.90;;;;;;5020617;28;20053;-89
2021/09/03 04:01:42;;;;;;;25.52;9.63;;;15.60;99.90;;;;;;5021820;28;20050;-89
2021/09/03 04:04:11;;;;;;;22.00;9.07;;;15.60;99.90;;;;;;5021019;28;20285;-87
2021/09/03 04:06:39;;;;;;;23.45;8.70;;;15.70;99.90;;;;;;5018036;28;20124;-90
2021/09/03 04:09:07;;;;;;;28.75;9.05;;;15.70;99.90;;;;;;5037476;28;20042;-88
2021/09/03 04:11:35;;;;;;;27.02;8.32;;;15.70;99.90;;;;;;5020604;28;20046;-90
2021/09/03 04:14:05;;;;;;;19.67;9.02;;;15.70;99.90;;;;;;5022772;28;20050;-88
2021/09/03 04:16:34;;;;;;;25.67;8.85;;;15.70;99.90;;;;;;5037607;28;20050;-90
2021/09/03 04:19:03;;;;;;;26.05;8.35;;;15.70;99.90;;;;;;5017420;28;20391;-89
2021/09/03 04:21:31;;;;;;;23.98;8.80;;;15.70;99.90;;;;;;5013756;28;20050;-91
2021/09/03 04:23:59;;;;;;;25.88;9.50;;;15.80;99.90;;;;;;5022487;28;20046;-87
2021/09/03 04:26:26;;;;;;;22.90;7.65;;;15.80;99.90;;;;;;5038255;28;20053;-87
2021/09/03 04:28:55;;;;;;;21.42;10.18;;;15.80;99.90;;;;;;5036895;28;20050;-90
2021/09/03 04:31:23;;;;;;;24.27;8.48;;;15.80;99.90;;;;;;5020267;28;20053;-89
2021/09/03 04:33:56;;;;;;;26.13;9.02;;;15.80;99.90;;;;;;5021026;28;20337;-87
2021/09/03 04:36:24;;;;;;;25.80;8.80;;;15.70;99.90;;;;;;5015726;28;20050;-87
2021/09/03 04:38:54;;;;;;;24.10;8.27;;;15.70;99.90;;;;;;5000767;28;20050;-86
2021/09/03 04:41:23;;;;;;;23.95;8.57;;;15.70;99.90;;;;;;5033942;28;20073;-85
2021/09/03 04:43:58;;;;;;;20.60;8.40;;;15.70;99.90;;;;;;5018950;28;20057;-88
2021/09/03 04:46:26;;;;;;;21.15;8.50;;;15.80;99.90;;;;;;5016950;28;20652;-86
2021/09/03 04:48:55;;;;;;;34.15;10.80;;;15.70;99.90;;;;;;5019541;28;20050;-86
2021/09/03 04:51:23;;;;;;;28.25;8.77;;;15.40;99.90;;;;;;5034886;28;20053;-89
2021/09/03 04:53:53;;;;;;;24.55;8.90;;;15.70;99.90;;;;;;5020066;28;20065;-87
2021/09/03 04:56:21;;;;;;;22.42;8.05;;;15.70;99.90;;;;;;5035131;28;20049;-87
2021/09/03 04:58:50;;;;;;;26.13;9.85;;;15.70;99.90;;;;;;5018753;28;20068;-86
2021/09/03 05:01:18;;;;;;;23.33;9.05;;;15.60;99.90;;;;;;5034928;28;20065;-86
2021/09/03 05:03:55;;;;;;;26.63;8.60;;;15.60;99.90;;;;;;5032868;28;20049;-87
2021/09/03 05:06:24;;;;;;;21.63;7.40;;;15.60;99.90;;;;;;5003523;28;20046;-86
2021/09/03 05:08:53;;;;;;;23.27;8.27;;;15.60;99.90;;;;;;5024928;28;20228;-86
2021/09/03 05:11:21;;;;;;;25.00;9.70;;;15.60;99.90;;;;;;5039729;28;20053;-86
2021/09/03 05:13:50;;;;;;;29.70;8.65;;;15.60;99.90;;;;;;5032345;28;20061;-86
2021/09/03 05:16:20;;;;;;;25.10;10.70;;;15.50;99.90;;;;;;5014190;28;20060;-87
2021/09/03 05:18:49;;;;;;;20.60;8.07;;;15.50;99.90;;;;;;5034311;28;20054;-85
2021/09/03 05:21:17;;;;;;;22.75;8.32;;;15.50;99.90;;;;;;5019320;28;20057;-87
2021/09/03 05:23:45;;;;;;;24.23;9.93;;;15.50;99.90;;;;;;5018144;28;20061;-87
2021/09/03 05:26:14;;;;;;;30.13;10.05;;;15.50;99.90;;;;;;5021649;28;20049;-85
2021/09/03 05:28:42;;;;;;;22.10;8.52;;;15.50;99.90;;;;;;5022733;28;20419;-85
2021/09/03 05:31:10;;;;;;;32.83;10.02;;;15.50;99.90;;;;;;5030018;28;20046;-86
2021/09/03 05:33:38;;;;;;;29.05;9.77;;;15.50;99.90;;;;;;5027814;28;20041;-85
2021/09/03 05:36:07;;;;;;;24.33;8.82;;;15.50;99.90;;;;;;5033124;28;20128;-87
2021/09/03 05:38:35;;;;;;;24.70;8.57;;;15.50;99.90;;;;;;5013597;28;20061;-84
2021/09/03 05:41:03;;;;;;;30.95;8.43;;;15.50;99.90;;;;;;5032972;28;20054;-85
2021/09/03 05:43:32;;;;;;;29.05;8.20;;;15.40;99.90;;;;;;5033313;28;20046;-89
2021/09/03 05:46:01;;;;;;;29.02;8.88;;;15.40;99.90;;;;;;5019713;28;20041;-85
2021/09/03 05:48:31;;;;;;;42.43;10.57;;;15.50;99.90;;;;;;5013386;28;20057;-89
2021/09/03 05:50:59;;;;;;;21.48;7.03;;;15.50;99.90;;;;;;5012843;28;20034;-85
2021/09/03 05:53:29;;;;;;;24.45;8.77;;;15.50;99.90;;;;;;5006547;28;20049;-86
2021/09/03 05:56:01;;;;;;;27.98;8.98;;;15.50;99.90;;;;;;5017947;28;20069;-87
2021/09/03 05:58:30;;;;;;;26.52;8.27;;;15.40;99.90;;;;;;5020766;28;20042;-86
2021/09/03 06:00:58;;;;;;;25.17;9.05;;;15.50;99.90;;;;;;5024294;28;20041;-85
2021/09/03 06:03:28;;;;;;;32.03;8.77;;;15.50;99.90;;;;;;5018109;28;20046;-86
2021/09/03 06:05:57;;;;;;;29.02;10.52;;;15.50;99.90;;;;;;5032313;28;20042;-85
2021/09/03 06:08:28;;;;;;;25.38;8.75;;;15.60;99.90;;;;;;5017908;28;20293;-85
2021/09/03 06:10:56;;;;;;;34.72;8.50;;;15.60;99.90;;;;;;5017235;28;20046;-86
2021/09/03 06:13:23;;;;;;;30.38;12.05;;;15.70;99.90;;;;;;5032948;28;20049;-87
2021/09/03 06:15:52;;;;;;;24.08;8.48;;;15.70;99.90;;;;;;5015813;28;20050;-86
2021/09/03 06:18:21;;;;;;;25.50;9.00;;;15.80;99.90;;;;;;5015977;28;20065;-86
2021/09/03 06:20:49;;;;;;;18.08;7.47;;;15.80;99.90;;;;;;5031929;28;20405;-89
2021/09/03 06:23:17;;;;;;;26.60;8.10;;;15.80;99.90;;;;;;5018382;28;20046;-86
2021/09/03 06:25:48;;;;;;;22.45;8.88;;;15.90;99.90;;;;;;5031653;28;20046;-86
2021/09/03 06:28:17;;;;;;;25.85;9.45;;;15.90;99.90;;;;;;5029094;28;20057;-86
2021/09/03 06:30:45;;;;;;;29.42;9.75;;;16.00;99.90;;;;;;5012521;28;20410;-86
2021/09/03 06:33:15;;;;;;;26.90;9.52;;;16.00;99.90;;;;;;5009486;28;20054;-87
2021/09/03 06:35:43;;;;;;;24.38;8.25;;;16.00;99.90;;;;;;5026250;28;20053;-84
2021/09/03 06:38:12;;;;;;;32.78;10.75;;;16.10;99.90;;;;;;5016029;28;20042;-85
2021/09/03 06:40:47;;;;;;;29.17;8.13;;;16.10;99.90;;;;;;5001041;28;20057;-88
2021/09/03 06:43:24;;;;;;;25.83;9.60;;;16.10;99.90;;;;;;5013878;28;20554;-88
2021/09/03 06:45:55;;;;;;;22.75;7.95;;;16.20;99.90;;;;;;5031367;28;20075;-89
2021/09/03 06:48:24;;;;;;;21.27;8.88;;;16.20;99.90;;;;;;5012321;28;20045;-87
2021/09/03 06:50:52;;;;;;;34.97;9.38;;;16.30;99.90;;;;;;5014961;28;20177;-87
2021/09/03 06:53:21;;;;;;;29.42;9.02;;;16.30;99.90;;;;;;5030349;28;20046;-87
2021/09/03 06:55:49;;;;;;;19.67;7.47;;;16.30;99.90;;;;;;5031586;28;20436;-86
2021/09/03 06:58:17;;;;;;;21.55;8.00;;;16.20;99.90;;;;;;5015402;28;20057;-89
2021/09/03 07:00:47;;;;;;;30.67;8.07;;;16.40;99.90;;;;;;5016339;28;20614;-87
2021/09/03 07:03:26;;;;;;;25.35;8.45;;;16.50;99.90;;;;;;5008416;28;20050;-89
2021/09/03 07:05:59;;;;;;;23.35;8.40;;;16.50;99.90;;;;;;5016915;28;20046;-89
2021/09/03 07:08:33;;;;;;;30.17;9.82;;;16.60;99.90;;;;;;5014049;28;20048;-88
2021/09/03 07:11:04;;;;;;;20.13;8.48;;;16.60;99.90;;;;;;5015450;28;20079;-88
2021/09/03 07:13:32;;;;;;;29.25;9.13;;;16.60;99.90;;;;;;5031255;28;20058;-88
2021/09/03 07:16:04;;;;;;;28.98;8.88;;;16.70;99.90;;;;;;5016726;28;20133;-88
2021/09/03 07:18:32;;;;;;;28.38;9.52;;;16.70;99.90;;;;;;5014492;28;20061;-89
2021/09/03 07:21:01;;;;;;;27.17;8.52;;;16.80;99.90;;;;;;5011952;28;20545;-86
2021/09/03 07:23:50;;;;;;;28.58;10.25;;;16.90;99.90;;;;;;5005827;28;20037;-87
2021/09/03 07:26:19;;;;;;;37.75;9.38;;;16.90;99.90;;;;;;5012336;28;20045;-86
2021/09/03 07:28:48;;;;;;;25.08;9.10;;;17.00;99.90;;;;;;4995159;28;20054;-85
2021/09/03 07:31:19;;;;;;;32.78;9.80;;;17.10;99.90;;;;;;5003577;28;20053;-86
2021/09/03 07:33:49;;;;;;;28.88;8.20;;;17.10;99.90;;;;;;4996575;28;20065;-88
2021/09/03 07:36:31;;;;;;;29.63;9.43;;;17.20;99.90;;;;;;5036108;28;20041;-91
2021/09/03 07:39:03;;;;;;;25.13;10.75;;;17.00;99.90;;;;;;5007485;28;20041;-88
2021/09/03 07:41:31;;;;;;;22.75;8.35;;;17.30;99.90;;;;;;5018720;28;20057;-86
2021/09/03 07:43:59;;;;;;;29.50;8.80;;;17.30;99.90;;;;;;5013735;28;20046;-87
2021/09/03 07:46:28;;;;;;;23.08;9.43;;;17.40;99.90;;;;;;5015118;28;20038;-88
2021/09/03 07:48:56;;;;;;;23.17;9.93;;;17.40;99.90;;;;;;5005489;28;20041;-87
2021/09/03 07:51:27;;;;;;;30.92;11.13;;;17.40;99.90;;;;;;5013179;28;20058;-86
2021/09/03 07:53:57;;;;;;;23.10;11.65;;;17.50;99.90;;;;;;5015573;28;20038;-88
2021/09/03 07:56:27;;;;;;;32.63;9.23;;;17.60;99.90;;;;;;5011335;28;20058;-88
2021/09/03 07:58:55;;;;;;;27.83;8.50;;;17.60;99.90;;;;;;4985713;28;20049;-87
2021/09/03 08:01:28;;;;;;;26.65;9.00;;;17.70;99.90;;;;;;5019907;28;20670;-93
2021/09/03 08:04:02;;;;;;;29.67;11.00;;;17.80;99.90;;;;;;4999840;28;20050;-85
2021/09/03 08:06:29;;;;;;;26.45;10.20;;;17.80;99.90;;;;;;5020780;28;20060;-88
2021/09/03 08:09:02;;;;;;;26.20;9.57;;;17.80;99.90;;;;;;5027487;28;20054;-88
2021/09/03 08:11:32;;;;;;;22.48;8.45;;;17.90;99.90;;;;;;5017681;28;20481;-87
2021/09/03 08:14:27;;;;;;;37.47;9.75;;;17.90;99.90;;;;;;5031437;28;20053;-92
2021/09/03 08:17:11;;;;;;;23.65;9.25;;;18.00;99.90;;;;;;5022645;28;20053;-87
2021/09/03 08:19:40;;;;;;;30.48;9.48;;;18.10;99.90;;;;;;5031250;28;20049;-85
2021/09/03 08:22:09;;;;;;;27.73;9.63;;;18.10;99.90;;;;;;5014106;28;20046;-87
2021/09/03 08:24:40;;;;;;;24.92;9.13;;;18.20;99.90;;;;;;5018511;28;20498;-90
2021/09/03 08:27:10;;;;;;;26.20;9.27;;;18.20;99.90;;;;;;5018837;28;20586;-89
2021/09/03 08:29:39;;;;;;;26.23;11.07;;;18.30;99.90;;;;;;5010992;28;20061;-86
2021/09/03 08:32:07;;;;;;;25.02;9.02;;;18.30;99.90;;;;;;5015395;28;20513;-88
2021/09/03 08:34:36;;;;;;;29.25;10.68;;;18.30;99.90;;;;;;4998936;28;20053;-86
2021/09/03 08:37:04;;;;;;;25.40;10.77;;;18.40;99.90;;;;;;5016481;28;20050;-87
2021/09/03 08:39:33;;;;;;;29.95;11.23;;;18.40;99.90;;;;;;5017668;28;20054;-86
2021/09/03 08:42:03;;;;;;;27.50;10.27;;;18.50;99.90;;;;;;5014840;28;20060;-87
2021/09/03 08:44:33;;;;;;;27.83;11.00;;;18.50;99.90;;;;;;5014879;28;20560;-88
2021/09/03 08:47:02;;;;;;;28.27;10.02;;;18.60;99.90;;;;;;5017470;28;20045;-87
2021/09/03 08:49:30;;;;;;;34.25;12.27;;;18.70;99.90;;;;;;5013431;28;20049;-87
2021/09/03 08:51:59;;;;;;;28.70;10.80;;;18.80;99.90;;;;;;5030750;28;20046;-88
2021/09/03 08:54:29;;;;;;;20.85;9.30;;;18.80;99.90;;;;;;5013427;28;20129;-88
2021/09/03 08:56:57;;;;;;;30.20;11.70;;;18.90;99.90;;;;;;5009091;28;20058;-88
2021/09/03 08:59:27;;;;;;;34.97;10.38;;;19.00;99.90;;;;;;5035024;28;20030;-87
2021/09/03 09:02:15;;;;;;;29.80;11.48;;;19.10;99.90;;;;;;5024278;28;20045;-87
2021/09/03 09:04:51;;;;;;;32.00;10.80;;;19.20;99.90;;;;;;5026289;28;20057;-87
2021/09/03 09:07:19;;;;;;;33.22;11.52;;;19.30;99.90;;;;;;5015926;28;20065;-89
2021/09/03 09:09:48;;;;;;;18.55;9.27;;;19.30;99.90;;;;;;5016750;28;20042;-89
2021/09/03 09:12:23;;;;;;;;;;;19.40;99.90;;;;;;5040893;28;20065;-88
2021/09/03 09:15:10;;;;;;;24.33;10.27;;;19.40;99.90;;;;;;5026262;28;19929;-87
2021/09/03 09:17:43;;;;;;;30.23;11.45;;;19.30;99.90;;;;;;5012289;28;20054;-86
2021/09/03 09:20:14;;;;;;;24.52;9.77;;;19.20;99.90;;;;;;5011538;28;20053;-87
2021/09/03 09:22:55;;;;;;;24.20;11.45;;;19.20;99.90;;;;;;5010543;28;20441;-88
2021/09/03 09:25:29;;;;;;;28.42;11.25;;;19.20;99.90;;;;;;4993503;28;20038;-88
2021/09/03 09:28:17;;;;;;;31.27;12.32;;;19.30;99.90;;;;;;5009743;28;20658;-87
2021/09/03 09:30:48;;;;;;;28.52;11.15;;;19.30;99.90;;;;;;4996458;28;20053;-87
2021/09/03 09:33:20;;;;;;;37.00;13.17;;;19.30;99.90;;;;;;5016741;28;20497;-87
2021/09/03 09:35:53;;;;;;;25.33;11.82;;;19.40;99.90;;;;;;5029431;28;20046;-90
2021/09/03 09:38:33;;;;;;;29.20;11.88;;;19.40;99.90;;;;;;5004220;28;20511;-87
2021/09/03 09:41:06;;;;;;;25.88;11.00;;;19.40;99.90;;;;;;5018911;28;20697;-88
2021/09/03 09:43:39;;;;;;;24.30;11.60;;;19.50;99.90;;;;;;4993240;28;20050;-87
2021/09/03 09:46:25;;;;;;;29.90;9.70;;;19.50;99.90;;;;;;5044476;28;20054;-86
2021/09/03 09:49:03;;;;;;;30.98;12.18;;;19.50;99.90;;;;;;5015680;28;20045;-87
2021/09/03 09:51:39;;;;;;;24.52;11.07;;;19.60;99.90;;;;;;5009203;28;20053;-88
2021/09/03 09:54:26;;;;;;;31.48;13.20;;;19.60;99.90;;;;;;5021655;28;20046;-87
2021/09/03 09:57:05;;;;;;;26.30;12.85;;;19.70;99.90;;;;;;5000995;28;20065;-86
2021/09/03 09:59:37;;;;;;;22.38;10.88;;;19.80;99.90;;;;;;5012257;28;20050;-87
2021/09/03 10:02:05;;;;;;;27.95;10.57;;;19.90;99.90;;;;;;5008878;28;20045;-87
2021/09/03 10:04:36;;;;;;;27.35;12.88;;;20.00;99.90;;;;;;5012341;28;20058;-87
2021/09/03 10:07:07;;;;;;;30.20;12.48;;;20.00;99.90;;;;;;5013901;28;20046;-87
2021/09/03 10:09:38;;;;;;;37.88;11.88;;;20.00;99.90;;;;;;5020547;28;20054;-86
2021/09/03 10:12:07;;;;;;;22.60;10.60;;;20.00;99.90;;;;;;5021867;28;20056;-87
2021/09/03 10:14:37;;;;;;;26.98;11.98;;;20.00;99.90;;;;;;5005065;28;20201;-87
2021/09/03 10:17:32;;;;;;;29.27;12.18;;;20.00;99.90;;;;;;5012879;28;20054;-88
2021/09/03 10:23:10;;;;;;;30.40;13.02;;;20.20;99.90;;;;;;5050439;28;20045;-82
2021/09/03 10:25:53;;;;;;;24.33;10.73;;;20.20;99.90;;;;;;5049541;28;20045;-86
2021/09/03 10:28:27;;;;;;;26.50;10.05;;;20.40;99.90;;;;;;5051438;28;20065;-83
2021/09/03 10:31:06;;;;;;;27.42;11.95;;;20.50;99.90;;;;;;5070831;28;20051;-82
2021/09/03 10:33:36;;;;;;;27.48;11.50;;;20.70;99.90;;;;;;5053922;28;20049;-83
2021/09/03 10:36:05;;;;;;;30.42;13.13;;;20.80;99.90;;;;;;5041239;28;20049;-87
2021/09/03 10:38:34;;;;;;;24.33;11.63;;;20.90;99.90;;;;;;5037244;28;20051;-81
2021/09/03 10:41:04;;;;;;;22.70;11.90;;;20.90;99.90;;;;;;5031262;28;20084;-84
2021/09/03 10:43:46;;;;;;;32.47;16.23;;;21.10;99.90;;;;;;5054930;28;20051;-86
2021/09/03 10:46:19;;;;;;;30.25;13.60;;;21.10;99.70;;;;;;5056233;28;20328;-85
2021/09/03 10:48:54;;;;;;;27.17;13.65;;;21.20;99.70;;;;;;5040830;28;20041;-89
2021/09/03 10:51:38;;;;;;;28.85;16.48;;;21.40;99.60;;;;;;5051471;28;20057;-84
2021/09/03 10:54:20;;;;;;;31.83;13.52;;;21.40;99.30;;;;;;5111724;23;20067;-83
2021/09/03 10:56:58;;;;;;;32.08;15.30;;;21.50;99.20;;;;;;5049690;28;20275;-85
2021/09/03 11:00:00;;;;;;;31.58;14.82;;;21.60;99.20;;;;;;5051505;28;20500;-84
2021/09/03 11:02:53;;;;;;;29.83;13.82;;;21.60;99.10;;;;;;5051725;28;20046;-83
2021/09/03 11:05:23;;;;;;;34.25;15.55;;;21.80;98.90;;;;;;5020722;28;20060;-86
2021/09/03 11:07:59;;;;;;;24.45;13.80;;;21.90;98.70;;;;;;5054876;28;20049;-84
2021/09/03 11:10:28;;;;;;;33.72;11.27;;;22.00;98.50;;;;;;5012982;28;20050;-82
2021/09/03 11:12:58;;;;;;;28.73;10.68;;;22.10;98.70;;;;;;5019598;28;20057;-82
2021/09/03 11:15:31;;;;;;;25.30;11.25;;;22.30;98.50;;;;;;5044015;28;20049;-81
2021/09/03 11:18:08;;;;;;;31.80;12.15;;;22.70;98.30;;;;;;5042804;28;20053;-81
2021/09/03 11:20:37;;;;;;;25.65;11.98;;;22.50;97.90;;;;;;5044589;28;20049;-83
2021/09/03 11:23:11;;;;;;;37.95;14.35;;;22.50;98.30;;;;;;5043511;28;20075;-81
2021/09/03 11:25:53;;;;;;;25.10;12.20;;;22.50;98.00;;;;;;5046364;28;20064;-83
2021/09/03 11:28:25;;;;;;;29.95;11.30;;;22.60;98.10;;;;;;5044148;28;20052;-80
2021/09/03 11:31:06;;;;;;;24.65;10.77;;;22.50;97.70;;;;;;5031090;28;20050;-81
2021/09/03 11:33:35;;;;;;;29.92;12.98;;;22.40;97.50;;;;;;5042839;28;20049;-81
2021/09/03 11:36:03;;;;;;;22.20;12.20;;;22.30;97.80;;;;;;5040028;28;20087;-82
2021/09/03 11:38:39;;;;;;;32.60;12.15;;;22.20;97.70;;;;;;5041971;28;20045;-82
2021/09/03 11:41:09;;;;;;;27.58;12.70;;;22.00;97.80;;;;;;5022161;28;20052;-82
2021/09/03 11:43:37;;;;;;;28.63;12.70;;;22.00;97.80;;;;;;5039555;28;20045;-81
2021/09/03 11:46:20;;;;;;;27.42;11.35;;;21.90;98.00;;;;;;5012185;28;20071;-81
2021/09/03 11:48:50;;;;;;;34.45;12.48;;;22.00;98.00;;;;;;5043442;28;20053;-80
2021/09/03 11:51:24;;;;;;;26.65;14.75;;;22.10;98.00;;;;;;5042249;28;20045;-82
2021/09/03 11:54:00;;;;;;;27.63;12.95;;;22.30;97.60;;;;;;5036581;28;20068;-82
2021/09/03 11:56:29;;;;;;;30.23;13.82;;;22.50;97.30;;;;;;5043411;28;20650;-82
2021/09/03 11:59:05;;;;;;;22.90;11.95;;;22.60;97.30;;;;;;5008672;28;20060;-82
2021/09/03 12:01:38;;;;;;;33.10;16.15;;;22.80;97.00;;;;;;5030852;28;20049;-83
2021/09/03 12:04:09;;;;;;;34.50;13.07;;;23.00;97.00;;;;;;5032858;28;20046;-80
2021/09/03 12:06:50;;;;;;;28.00;12.13;;;23.20;96.80;;;;;;5038813;28;20049;-83
2021/09/03 12:09:35;;;;;;;28.02;13.55;;;22.70;96.70;;;;;;5018126;28;20056;-80
2021/09/03 12:12:10;;;;;;;26.67;13.52;;;23.50;96.50;;;;;;5043450;28;20049;-78
2021/09/03 12:14:38;;;;;;;28.17;14.15;;;23.60;96.10;;;;;;5044558;28;20049;-82
2021/09/03 12:17:09;;;;;;;30.10;13.43;;;23.70;96.00;;;;;;5041224;28;20065;-78
2021/09/03 12:19:38;;;;;;;31.00;14.40;;;23.70;96.00;;;;;;5040104;28;20056;-83
2021/09/03 12:22:16;;;;;;;29.20;13.43;;;23.70;95.90;;;;;;5038231;28;20049;-80
2021/09/03 12:24:50;;;;;;;27.33;14.35;;;23.50;95.70;;;;;;5036566;28;20045;-81
2021/09/03 12:27:18;;;;;;;29.13;14.52;;;23.40;96.10;;;;;;5022969;28;20054;-79
2021/09/03 12:29:46;;;;;;;31.30;18.10;;;23.30;95.80;;;;;;5037507;28;20041;-79
2021/09/03 12:32:24;;;;;;;30.20;15.68;;;23.20;95.80;;;;;;5037944;28;20049;-80
2021/09/03 12:34:58;;;;;;;30.92;17.25;;;23.20;95.30;;;;;;5022151;28;20052;-82
2021/09/03 12:37:27;;;;;;;36.97;16.50;;;23.40;95.50;;;;;;5031685;28;20041;-83
2021/09/03 12:40:04;;;;;;;34.65;15.70;;;23.10;95.40;;;;;;5037304;28;20078;-77
2021/09/03 12:42:40;;;;;;;28.10;14.70;;;23.00;95.50;;;;;;5034459;28;20041;-81
2021/09/03 12:45:09;;;;;;;36.65;17.73;;;23.00;95.60;;;;;;5032644;28;20049;-83
2021/09/03 12:47:37;;;;;;;34.80;15.70;;;23.10;95.60;;;;;;5039436;28;20060;-82
2021/09/03 12:50:12;;;;;;;28.98;16.13;;;23.20;95.90;;;;;;5027027;28;20045;-82
2021/09/03 12:52:40;;;;;;;31.55;15.38;;;23.40;95.60;;;;;;5041695;28;20053;-83
2021/09/03 12:55:09;;;;;;;30.67;15.43;;;23.60;95.50;;;;;;5037720;28;20065;-82
2021/09/03 12:57:40;;;;;;;30.52;16.75;;;23.80;95.10;;;;;;5033197;28;20061;-81
2021/09/03 13:00:09;;;;;;;33.00;14.93;;;24.10;94.80;;;;;;5038634;28;20041;-83
2021/09/03 13:02:36;;;;;;;30.40;13.82;;;24.40;94.50;;;;;;5024846;28;20087;-80
2021/09/03 13:05:07;;;;;;;31.50;13.35;;;24.70;94.30;;;;;;5034457;28;20213;-82
2021/09/03 13:07:35;;;;;;;36.63;16.60;;;24.90;94.10;;;;;;5039825;28;20056;-82
2021/09/03 13:10:05;;;;;;;30.77;16.83;;;25.00;93.70;;;;;;5054274;28;20041;-83
2021/09/03 13:12:34;;;;;;;28.27;14.57;;;25.10;93.30;;;;;;5059396;28;20052;-81
2021/09/03 13:15:03;;;;;;;33.60;15.02;;;25.20;93.30;;;;;;5008227;28;20046;-82
2021/09/03 13:17:31;;;;;;;29.60;16.25;;;25.10;93.10;;;;;;5043382;28;20053;-82
2021/09/03 13:19:59;;;;;;;34.38;14.48;;;25.00;93.00;;;;;;5045018;28;20053;-81
2021/09/03 13:22:28;;;;;;;35.13;17.25;;;24.70;93.20;;;;;;5043847;28;20041;-82
2021/09/03 13:24:56;;;;;;;34.92;17.63;;;24.50;93.30;;;;;;5026466;28;20055;-81
2021/09/03 13:27:24;;;;;;;29.98;15.05;;;24.40;93.50;;;;;;5042661;28;20057;-80
2021/09/03 13:29:53;;;;;;;40.85;16.10;;;24.30;93.50;;;;;;5039966;28;20045;-84
2021/09/03 13:32:22;;;;;;;36.30;18.88;;;24.30;93.80;;;;;;5018884;28;20049;-86
2021/09/03 13:34:50;;;;;;;35.63;18.98;;;24.20;93.60;;;;;;5018845;28;20053;-82
2021/09/03 13:37:21;;;;;;;31.75;18.52;;;24.20;93.20;;;;;;5033403;28;20045;-81
2021/09/03 13:39:49;;;;;;;30.53;18.07;;;24.30;93.20;;;;;;5038044;28;20050;-79
2021/09/03 13:42:17;;;;;;;32.08;16.15;;;24.30;93.30;;;;;;5038809;28;20064;-81
2021/09/03 13:44:45;;;;;;;28.13;15.13;;;24.40;93.00;;;;;;5034904;28;20046;-81
2021/09/03 13:47:15;;;;;;;27.58;15.57;;;24.60;92.90;;;;;;5043868;28;20703;-80
2021/09/03 13:49:43;;;;;;;31.02;15.35;;;24.70;93.00;;;;;;5032775;28;20055;-82
2021/09/03 13:52:12;;;;;;;33.40;16.38;;;24.80;92.90;;;;;;5041625;28;20041;-81